Time;durP1;ratioP1;P1;durP2;ratioP2;P2;SDS_P1;SDS_P2;PMS_P1;PMS_P2;Temp;Humidity;BMP_temperature;BMP_pressure;BME280_temperature;BME280_humidity;BME280_pressure;Samples;Min_cycle;Max_cycle;Signal;HPM_P1;HPM_P2
2023/09/29 00:00:16;;;;;;;16.83;3.35;;;37.70;29.90;;;;;;5047940;28;20108;-59
2023/09/29 00:02:44;;;;;;;18.25;3.65;;;37.60;30.20;;;;;;5048919;28;20028;-58
2023/09/29 00:05:11;;;;;;;19.85;3.28;;;37.60;29.60;;;;;;5048886;28;20047;-59
2023/09/29 00:07:37;;;;;;;17.38;3.60;;;37.60;30.20;;;;;;5047829;28;20477;-59
2023/09/29 00:10:11;;;;;;;16.40;3.72;;;37.60;30.10;;;;;;5048799;28;20017;-62
2023/09/29 00:12:39;;;;;;;22.38;3.78;;;37.50;30.90;;;;;;5046590;28;20017;-61
2023/09/29 00:15:06;;;;;;;17.63;6.07;;;37.40;30.30;;;;;;5049212;28;20021;-60
2023/09/29 00:17:33;;;;;;;12.98;4.00;;;37.40;30.80;;;;;;5045732;28;20481;-55
2023/09/29 00:20:01;;;;;;;17.80;3.80;;;37.30;30.50;;;;;;5047323;28;20493;-58
2023/09/29 00:22:28;;;;;;;22.17;3.75;;;37.20;29.90;;;;;;5046252;28;20024;-59
2023/09/29 00:24:55;;;;;;;18.73;3.40;;;37.20;29.90;;;;;;5045353;28;20028;-61
2023/09/29 00:27:21;;;;;;;24.80;3.47;;;37.20;29.50;;;;;;5047710;28;20023;-60
2023/09/29 00:29:48;;;;;;;22.38;4.65;;;37.20;29.40;;;;;;5048028;28;20021;-61
2023/09/29 00:32:14;;;;;;;17.90;3.40;;;37.00;30.50;;;;;;5048138;28;20013;-59
2023/09/29 00:34:41;;;;;;;17.33;3.63;;;37.00;30.70;;;;;;5046536;28;20009;-61
2023/09/29 00:37:08;;;;;;;19.00;4.45;;;37.00;30.30;;;;;;5049621;28;20017;-60
2023/09/29 00:39:35;;;;;;;16.95;3.25;;;36.90;30.20;;;;;;5047016;28;20025;-58
2023/09/29 00:42:03;;;;;;;27.85;3.45;;;36.80;30.90;;;;;;5047190;28;20052;-59
2023/09/29 00:44:29;;;;;;;22.73;3.30;;;36.80;31.00;;;;;;5049335;28;20021;-60
2023/09/29 00:46:56;;;;;;;18.70;3.70;;;36.70;31.10;;;;;;5051050;28;20009;-60
2023/09/29 00:49:23;;;;;;;14.02;3.55;;;36.70;31.30;;;;;;5051825;28;20009;-61
2023/09/29 00:51:50;;;;;;;14.95;3.22;;;36.60;31.00;;;;;;5052042;28;20018;-58
2023/09/29 00:54:16;;;;;;;20.45;3.65;;;36.60;31.00;;;;;;5051014;28;20032;-61
2023/09/29 00:56:43;;;;;;;19.60;3.78;;;36.50;30.90;;;;;;5039400;28;20025;-60
2023/09/29 00:59:10;;;;;;;44.30;20.48;;;36.50;30.80;;;;;;5048575;28;20105;-62
2023/09/29 01:01:37;;;;;;;31.35;15.75;;;36.40;30.70;;;;;;5047832;28;20052;-62
2023/09/29 01:04:04;;;;;;;40.53;19.33;;;36.40;30.50;;;;;;5048182;28;20028;-59
2023/09/29 01:06:31;;;;;;;35.28;19.98;;;36.30;31.20;;;;;;5047857;28;20090;-60
2023/09/29 01:08:59;;;;;;;23.95;9.68;;;36.30;31.20;;;;;;5046842;28;20095;-60
2023/09/29 01:11:25;;;;;;;14.35;3.70;;;36.10;31.30;;;;;;5045857;28;20017;-62
2023/09/29 01:13:52;;;;;;;18.90;3.60;;;36.00;30.90;;;;;;5044962;28;20044;-59
2023/09/29 01:16:20;;;;;;;13.32;3.72;;;35.90;31.00;;;;;;5045652;28;20494;-60
2023/09/29 01:18:47;;;;;;;18.25;3.75;;;35.90;31.80;;;;;;5064075;28;20021;-59
2023/09/29 01:21:13;;;;;;;16.55;3.80;;;35.80;32.40;;;;;;5048700;28;20032;-63
2023/09/29 01:23:42;;;;;;;18.35;4.05;;;35.70;32.90;;;;;;5048445;28;20016;-59
2023/09/29 01:26:09;;;;;;;19.08;3.83;;;35.60;32.80;;;;;;5028891;28;20096;-60
2023/09/29 01:28:36;;;;;;;22.10;4.63;;;35.40;33.00;;;;;;5048116;28;20005;-61
2023/09/29 01:31:04;;;;;;;17.58;4.75;;;35.30;32.90;;;;;;5046570;28;20032;-58
2023/09/29 01:33:30;;;;;;;20.83;4.25;;;35.20;32.70;;;;;;5047562;28;20032;-60
2023/09/29 01:35:56;;;;;;;19.10;4.38;;;35.10;32.50;;;;;;5045930;28;20051;-60
2023/09/29 01:38:23;;;;;;;29.23;4.50;;;34.90;32.10;;;;;;5047619;28;20966;-63
2023/09/29 01:40:51;;;;;;;39.35;5.72;;;34.80;32.80;;;;;;5048267;28;20057;-60
2023/09/29 01:43:22;;;;;;;33.10;5.57;;;34.70;32.30;;;;;;5046664;28;20009;-59
2023/09/29 01:45:48;;;;;;;40.75;6.07;;;34.60;32.60;;;;;;5057251;28;20039;-59
2023/09/29 01:48:15;;;;;;;47.88;6.30;;;34.50;32.70;;;;;;5047126;28;20039;-60
2023/09/29 01:50:42;;;;;;;42.85;6.38;;;34.40;33.20;;;;;;5046275;28;20021;-60
2023/09/29 01:53:10;;;;;;;34.70;6.10;;;34.30;33.20;;;;;;5046095;28;20029;-61
2023/09/29 01:55:36;;;;;;;50.05;7.20;;;34.20;34.50;;;;;;5047011;28;20427;-58
2023/09/29 01:58:03;;;;;;;33.38;7.22;;;34.10;35.20;;;;;;5048520;28;20025;-58
2023/09/29 02:00:30;;;;;;;34.67;7.30;;;34.00;36.20;;;;;;5052287;28;20469;-59
2023/09/29 02:02:57;;;;;;;37.40;7.70;;;33.90;37.30;;;;;;5046931;28;20075;-62
2023/09/29 02:05:23;;;;;;;41.55;8.77;;;33.80;38.30;;;;;;5048295;28;20147;-59
2023/09/29 02:07:50;;;;;;;42.63;10.07;;;33.80;39.40;;;;;;5047311;28;20373;-60
2023/09/29 02:10:21;;;;;;;61.00;10.00;;;33.70;40.40;;;;;;5054338;28;20036;-60
2023/09/29 02:12:53;;;;;;;37.00;8.75;;;33.60;41.00;;;;;;5054936;28;20092;-60
2023/09/29 02:15:20;;;;;;;40.88;8.45;;;33.60;41.40;;;;;;5049643;28;20074;-61
2023/09/29 02:17:48;;;;;;;40.60;7.25;;;33.50;41.80;;;;;;5048448;28;20466;-60
2023/09/29 02:20:18;;;;;;;48.17;7.93;;;33.40;42.00;;;;;;5049006;28;20481;-60
2023/09/29 02:22:45;;;;;;;35.80;7.10;;;33.40;42.30;;;;;;5046769;28;20020;-60
2023/09/29 02:25:17;;;;;;;36.97;7.63;;;33.30;42.50;;;;;;5047595;28;20021;-58
2023/09/29 02:27:44;;;;;;;36.72;8.40;;;33.30;43.00;;;;;;5050130;28;20381;-60
2023/09/29 02:30:11;;;;;;;40.42;9.32;;;33.20;43.40;;;;;;5046452;28;20013;-60
2023/09/29 02:32:40;;;;;;;43.20;10.80;;;33.10;43.40;;;;;;5046976;28;20378;-59
2023/09/29 02:35:07;;;;;;;50.80;11.43;;;33.10;43.60;;;;;;5047209;28;20414;-62
2023/09/29 02:37:33;;;;;;;61.95;10.23;;;33.00;43.70;;;;;;5044331;28;20453;-61
2023/09/29 02:40:11;;;;;;;53.40;9.80;;;33.00;44.00;;;;;;5035138;28;20032;-61
2023/09/29 02:42:39;;;;;;;49.55;9.30;;;32.90;44.10;;;;;;5035845;28;20385;-60
2023/09/29 02:45:06;;;;;;;48.80;9.65;;;32.80;44.30;;;;;;5047063;28;20044;-60
2023/09/29 02:47:33;;;;;;;71.90;9.93;;;32.80;44.80;;;;;;5055271;28;20067;-64
2023/09/29 02:50:00;;;;;;;54.42;9.65;;;33.00;45.60;;;;;;5055489;28;20039;-60
2023/09/29 02:52:28;;;;;;;56.25;10.10;;;33.40;45.10;;;;;;5054127;28;20020;-60
2023/09/29 02:54:55;;;;;;;73.38;11.23;;;33.60;44.70;;;;;;5052989;28;20086;-60
2023/09/29 02:57:24;;;;;;;66.05;10.18;;;33.60;44.70;;;;;;5051358;28;20013;-61
2023/09/29 02:59:51;;;;;;;60.67;9.98;;;33.50;44.80;;;;;;5050452;28;20009;-60
2023/09/29 03:02:17;;;;;;;66.20;9.85;;;33.70;45.50;;;;;;5050399;28;20013;-59
2023/09/29 03:04:46;;;;;;;56.58;11.23;;;33.70;45.30;;;;;;5060017;28;20048;-59
2023/09/29 03:07:13;;;;;;;47.67;9.63;;;33.90;45.20;;;;;;5049246;28;20021;-61
2023/09/29 03:09:40;;;;;;;53.65;9.52;;;34.00;44.50;;;;;;5057642;28;20067;-62
2023/09/29 03:12:07;;;;;;;49.42;9.38;;;34.10;44.40;;;;;;5051271;28;20052;-60
2023/09/29 03:14:34;;;;;;;50.60;8.20;;;34.10;44.10;;;;;;5052644;28;20036;-58
2023/09/29 03:17:00;;;;;;;57.08;8.52;;;34.20;43.30;;;;;;5049304;28;20725;-62
2023/09/29 03:19:30;;;;;;;49.17;7.90;;;34.10;42.40;;;;;;5052808;28;20061;-58
2023/09/29 03:22:00;;;;;;;43.90;8.05;;;34.20;41.60;;;;;;5052986;28;20029;-62
2023/09/29 03:24:28;;;;;;;49.83;9.68;;;34.40;41.60;;;;;;5051613;28;20025;-62
2023/09/29 03:26:54;;;;;;;44.38;8.18;;;34.30;41.00;;;;;;5050120;28;20041;-61
2023/09/29 03:29:21;;;;;;;48.28;8.10;;;34.30;41.50;;;;;;5050989;28;20023;-62
2023/09/29 03:31:47;;;;;;;49.80;9.25;;;34.20;41.80;;;;;;5050172;28;20049;-58
2023/09/29 03:34:19;;;;;;;54.78;8.32;;;34.20;41.40;;;;;;5060089;28;20024;-62
2023/09/29 03:36:45;;;;;;;40.75;9.35;;;34.20;42.20;;;;;;5048652;28;20017;-61
2023/09/29 03:39:12;;;;;;;49.92;9.88;;;34.10;41.80;;;;;;5052333;28;20068;-57
2023/09/29 03:41:40;;;;;;;53.47;9.20;;;34.10;42.40;;;;;;5050031;28;20393;-61
2023/09/29 03:44:06;;;;;;;63.83;10.18;;;34.10;42.50;;;;;;5048259;28;20024;-57
2023/09/29 03:46:33;;;;;;;41.35;7.20;;;34.10;42.70;;;;;;5049081;28;20025;-58
2023/09/29 03:49:00;;;;;;;41.45;6.97;;;33.90;43.20;;;;;;5062426;28;20442;-61
2023/09/29 03:51:27;;;;;;;30.98;6.05;;;33.90;44.00;;;;;;5050278;28;20393;-56
2023/09/29 03:53:55;;;;;;;33.42;6.38;;;33.70;44.10;;;;;;5048505;28;20103;-59
2023/09/29 03:56:23;;;;;;;43.47;6.82;;;33.70;44.60;;;;;;5049148;28;20378;-61
2023/09/29 03:58:50;;;;;;;33.40;6.43;;;33.60;44.50;;;;;;5053819;28;20012;-64
2023/09/29 04:01:17;;;;;;;38.50;7.60;;;33.60;45.10;;;;;;5051103;28;20056;-56
2023/09/29 04:03:44;;;;;;;29.83;7.15;;;33.60;44.30;;;;;;5050096;28;20016;-61
2023/09/29 04:06:10;;;;;;;33.95;7.70;;;33.60;44.30;;;;;;5049253;28;20021;-62
2023/09/29 04:08:37;;;;;;;37.85;6.50;;;33.60;44.40;;;;;;5048151;28;20013;-63
2023/09/29 04:11:04;;;;;;;35.38;7.47;;;33.60;44.50;;;;;;5049338;28;20417;-60
2023/09/29 04:13:31;;;;;;;27.58;5.78;;;33.50;45.10;;;;;;5050118;28;20020;-61
2023/09/29 04:15:59;;;;;;;24.00;5.78;;;33.30;46.60;;;;;;5030918;28;20029;-59
2023/09/29 04:18:25;;;;;;;24.77;6.72;;;33.20;47.80;;;;;;5048698;28;20509;-59
2023/09/29 04:20:52;;;;;;;18.48;6.00;;;33.10;47.50;;;;;;5049718;28;20044;-58
2023/09/29 04:23:18;;;;;;;27.60;6.00;;;33.10;49.70;;;;;;5048771;28;20096;-59
2023/09/29 04:25:46;;;;;;;27.40;5.75;;;33.10;50.70;;;;;;5048705;28;20055;-55
2023/09/29 04:28:13;;;;;;;16.52;4.78;;;33.00;50.60;;;;;;5047810;28;20025;-59
2023/09/29 04:30:39;;;;;;;28.98;5.93;;;33.00;50.90;;;;;;5049427;28;20043;-60
2023/09/29 04:33:06;;;;;;;21.58;4.65;;;32.90;50.80;;;;;;5054706;28;20055;-59
2023/09/29 04:35:32;;;;;;;19.35;4.53;;;32.90;51.30;;;;;;5049147;28;20025;-59
2023/09/29 04:37:58;;;;;;;21.83;4.90;;;32.90;51.80;;;;;;5050072;28;20047;-61
2023/09/29 04:40:25;;;;;;;19.67;4.32;;;32.70;52.10;;;;;;5048971;28;20108;-62
2023/09/29 04:42:51;;;;;;;17.17;3.75;;;32.60;45.80;;;;;;5050291;28;21947;-62
2023/09/29 04:45:18;;;;;;;17.98;3.83;;;32.50;42.70;;;;;;5048425;28;20013;-61
2023/09/29 04:47:44;;;;;;;25.00;3.63;;;32.40;40.00;;;;;;5048313;28;20017;-62
2023/09/29 04:50:11;;;;;;;16.00;3.75;;;32.40;37.00;;;;;;5049452;28;20515;-62
2023/09/29 04:52:37;;;;;;;25.02;4.13;;;32.40;37.20;;;;;;5049307;28;20135;-61
2023/09/29 04:55:04;;;;;;;17.35;3.30;;;32.40;37.20;;;;;;5047007;28;20033;-64
2023/09/29 04:57:31;;;;;;;23.75;3.95;;;32.30;36.00;;;;;;5048633;28;20021;-63
2023/09/29 04:59:58;;;;;;;22.42;3.35;;;32.20;35.50;;;;;;5051928;28;20477;-63
2023/09/29 05:02:29;;;;;;;29.60;3.78;;;32.10;37.40;;;;;;5047206;28;20071;-63
2023/09/29 05:04:56;;;;;;;19.70;4.60;;;32.10;36.40;;;;;;5052403;28;20473;-62
2023/09/29 05:07:23;;;;;;;17.17;5.40;;;32.00;36.20;;;;;;5047628;28;20021;-63
2023/09/29 05:09:49;;;;;;;29.42;4.90;;;31.90;35.90;;;;;;5047667;28;20044;-65
2023/09/29 05:12:15;;;;;;;22.60;4.43;;;31.90;35.90;;;;;;5054674;28;20523;-62
2023/09/29 05:14:42;;;;;;;22.20;4.07;;;31.90;36.30;;;;;;5050913;28;20029;-61
2023/09/29 05:17:08;;;;;;;18.42;3.80;;;31.80;36.10;;;;;;5052467;28;20013;-65
2023/09/29 05:19:35;;;;;;;17.42;3.90;;;31.80;36.90;;;;;;5047931;28;20016;-62
2023/09/29 05:22:01;;;;;;;22.75;3.95;;;31.70;37.00;;;;;;5049191;28;20024;-64
2023/09/29 05:24:28;;;;;;;28.67;5.47;;;31.60;37.20;;;;;;5048848;28;20049;-64
2023/09/29 05:26:54;;;;;;;22.05;4.40;;;31.40;36.80;;;;;;5048235;28;20103;-64
2023/09/29 05:29:21;;;;;;;22.17;4.07;;;31.40;36.90;;;;;;5050999;28;20016;-63
2023/09/29 05:31:48;;;;;;;26.88;4.30;;;31.30;37.00;;;;;;5050652;28;20021;-62
2023/09/29 05:34:15;;;;;;;22.48;4.63;;;31.30;37.20;;;;;;5048972;28;20009;-62
2023/09/29 05:36:41;;;;;;;17.27;3.83;;;31.10;37.20;;;;;;5050177;28;20070;-65
2023/09/29 05:39:07;;;;;;;17.60;3.67;;;31.10;37.00;;;;;;5047552;28;20036;-63
2023/09/29 05:41:34;;;;;;;18.92;3.78;;;31.10;37.20;;;;;;5047540;28;20432;-62
2023/09/29 05:44:01;;;;;;;17.27;3.92;;;31.10;37.60;;;;;;5047377;28;20017;-62
2023/09/29 05:46:27;;;;;;;25.85;4.63;;;31.10;38.10;;;;;;5047311;28;20040;-62
2023/09/29 05:48:54;;;;;;;23.80;4.10;;;31.10;38.50;;;;;;5047137;28;20024;-64
2023/09/29 05:51:21;;;;;;;23.10;4.28;;;31.00;38.60;;;;;;5048570;28;20013;-63
2023/09/29 05:53:47;;;;;;;22.23;5.28;;;30.90;39.40;;;;;;5046719;28;20021;-65
2023/09/29 05:56:15;;;;;;;23.17;4.68;;;30.90;40.10;;;;;;5046270;28;20443;-65
2023/09/29 05:58:42;;;;;;;15.75;4.28;;;30.70;40.60;;;;;;5047001;28;20037;-61
2023/09/29 06:01:09;;;;;;;20.55;4.85;;;30.60;41.10;;;;;;5046633;28;20025;-63
2023/09/29 06:03:37;;;;;;;17.85;4.55;;;30.60;41.60;;;;;;5051521;28;20075;-61
2023/09/29 06:06:04;;;;;;;20.08;4.68;;;30.50;42.10;;;;;;5051316;28;20088;-60
2023/09/29 06:08:31;;;;;;;16.63;5.18;;;30.40;42.60;;;;;;5047086;28;20029;-61
2023/09/29 06:10:58;;;;;;;24.20;5.20;;;30.40;42.50;;;;;;5046564;28;20070;-62
2023/09/29 06:13:24;;;;;;;17.98;4.32;;;30.40;42.50;;;;;;5049122;28;20488;-62
2023/09/29 06:15:51;;;;;;;24.00;5.05;;;30.40;42.40;;;;;;5048877;28;20023;-62
2023/09/29 06:18:17;;;;;;;20.25;4.53;;;30.30;42.30;;;;;;5051036;28;20076;-62
2023/09/29 06:20:44;;;;;;;35.97;5.25;;;30.30;42.20;;;;;;5042131;28;20047;-63
2023/09/29 06:23:10;;;;;;;56.17;6.57;;;30.30;42.60;;;;;;5046558;28;20014;-63
2023/09/29 06:25:37;;;;;;;27.92;5.53;;;30.20;42.60;;;;;;5045979;28;20024;-62
2023/09/29 06:28:03;;;;;;;22.58;5.28;;;30.10;42.80;;;;;;5045040;28;20017;-62
2023/09/29 06:30:30;;;;;;;27.95;5.10;;;30.10;43.00;;;;;;5046472;28;20021;-65
2023/09/29 06:32:57;;;;;;;30.10;5.25;;;29.90;43.00;;;;;;5049533;28;20040;-67
2023/09/29 06:35:23;;;;;;;25.05;5.78;;;29.90;43.00;;;;;;5049154;28;20017;-63
2023/09/29 06:37:51;;;;;;;24.00;6.63;;;29.90;43.40;;;;;;5041099;28;20024;-66
2023/09/29 06:40:18;;;;;;;21.83;5.90;;;29.80;43.50;;;;;;5043709;28;20025;-63
2023/09/29 06:42:44;;;;;;;22.20;5.70;;;29.80;43.70;;;;;;5044083;28;20021;-63
2023/09/29 06:45:11;;;;;;;21.67;5.30;;;29.60;44.50;;;;;;5043769;28;20013;-64
2023/09/29 06:47:37;;;;;;;21.30;5.47;;;29.60;44.00;;;;;;5046304;28;20020;-63
2023/09/29 06:50:04;;;;;;;21.20;5.57;;;29.50;44.10;;;;;;5046326;28;20020;-62
2023/09/29 06:52:31;;;;;;;17.40;5.10;;;29.50;44.20;;;;;;5041483;28;20100;-63
2023/09/29 06:54:57;;;;;;;29.58;5.95;;;29.50;44.80;;;;;;5043565;28;20019;-63
2023/09/29 06:57:24;;;;;;;25.50;5.85;;;29.40;44.60;;;;;;5041904;28;20017;-65
2023/09/29 06:59:50;;;;;;;24.52;5.40;;;29.40;44.70;;;;;;5044338;28;20024;-64
2023/09/29 07:02:17;;;;;;;19.33;5.65;;;29.30;44.30;;;;;;5043617;28;20032;-65
2023/09/29 07:04:43;;;;;;;26.58;5.20;;;29.20;45.10;;;;;;5041568;28;20542;-63
2023/09/29 07:07:10;;;;;;;28.40;8.57;;;29.20;45.00;;;;;;5026838;28;20029;-64
2023/09/29 07:09:38;;;;;;;20.98;5.07;;;29.20;45.20;;;;;;5045420;28;20101;-60
2023/09/29 07:12:09;;;;;;;20.52;5.88;;;29.10;44.90;;;;;;5040052;28;20075;-66
2023/09/29 07:14:35;;;;;;;18.30;4.97;;;29.10;45.00;;;;;;5017967;28;20025;-67
2023/09/29 07:17:02;;;;;;;29.08;5.30;;;29.10;45.20;;;;;;5029978;28;20025;-64
2023/09/29 07:19:30;;;;;;;23.90;5.97;;;29.00;45.00;;;;;;5047328;28;20021;-66
2023/09/29 07:21:57;;;;;;;22.10;5.68;;;29.00;45.00;;;;;;5047082;28;20043;-64
2023/09/29 07:24:23;;;;;;;26.42;5.25;;;29.00;44.90;;;;;;5048895;28;20013;-63
2023/09/29 07:26:50;;;;;;;23.45;5.82;;;28.80;45.20;;;;;;5047779;28;20013;-64
2023/09/29 07:29:16;;;;;;;28.38;6.05;;;28.80;45.30;;;;;;5047252;28;20020;-62
2023/09/29 07:31:46;;;;;;;34.00;7.32;;;28.80;45.30;;;;;;5050249;28;20043;-63
2023/09/29 07:34:15;;;;;;;27.48;6.10;;;28.70;45.20;;;;;;5052452;28;20151;-66
2023/09/29 07:36:44;;;;;;;29.60;7.00;;;28.70;45.80;;;;;;5048104;28;20028;-61
2023/09/29 07:39:15;;;;;;;31.20;6.43;;;28.60;46.60;;;;;;5053409;28;20012;-64
2023/09/29 07:41:42;;;;;;;27.15;7.30;;;28.50;46.60;;;;;;5035283;28;20111;-63
2023/09/29 07:44:09;;;;;;;30.17;7.32;;;28.50;46.90;;;;;;5050077;28;20009;-63
2023/09/29 07:46:36;;;;;;;42.90;8.00;;;28.40;47.80;;;;;;5051954;28;20025;-61
2023/09/29 07:49:03;;;;;;;37.47;8.15;;;28.40;49.10;;;;;;5052004;28;20020;-64
2023/09/29 07:51:30;;;;;;;38.75;7.57;;;28.30;49.70;;;;;;5049154;28;20018;-63
2023/09/29 07:53:59;;;;;;;37.13;8.07;;;28.30;50.70;;;;;;5052267;28;20564;-63
2023/09/29 07:56:26;;;;;;;34.28;8.07;;;28.30;51.10;;;;;;5049644;28;20024;-66
2023/09/29 07:58:54;;;;;;;34.67;8.32;;;28.20;51.50;;;;;;5049688;28;20400;-67
2023/09/29 08:01:20;;;;;;;26.40;7.90;;;28.20;52.60;;;;;;5043926;28;20478;-63
2023/09/29 08:03:48;;;;;;;30.00;7.72;;;28.10;53.00;;;;;;5049261;28;20030;-60
2023/09/29 08:06:16;;;;;;;41.22;8.02;;;28.10;53.00;;;;;;5052124;28;20054;-59
2023/09/29 08:08:42;;;;;;;32.83;7.30;;;28.10;53.80;;;;;;5049546;28;20025;-64
2023/09/29 08:11:09;;;;;;;36.75;8.05;;;28.00;55.40;;;;;;5051426;28;20029;-62
2023/09/29 08:13:36;;;;;;;25.85;7.82;;;28.10;55.60;;;;;;5050102;28;20452;-62
2023/09/29 08:16:02;;;;;;;34.28;8.68;;;28.00;57.10;;;;;;5051030;28;20021;-62
2023/09/29 08:18:29;;;;;;;28.75;8.20;;;27.90;60.80;;;;;;5053007;28;20021;-64
2023/09/29 08:20:55;;;;;;;37.10;8.60;;;27.80;61.80;;;;;;5050006;28;20393;-62
2023/09/29 08:23:22;;;;;;;34.38;7.72;;;27.80;63.30;;;;;;5050580;28;20481;-63
2023/09/29 08:25:48;;;;;;;39.90;7.88;;;27.90;62.00;;;;;;5033394;28;20017;-64
2023/09/29 08:28:15;;;;;;;34.92;9.10;;;27.90;61.90;;;;;;5049028;28;20901;-67
2023/09/29 08:30:41;;;;;;;33.17;7.30;;;27.90;61.60;;;;;;5052061;28;20369;-64
2023/09/29 08:33:08;;;;;;;30.67;7.38;;;27.90;62.50;;;;;;5050748;28;20017;-64
2023/09/29 08:35:35;;;;;;;30.10;7.45;;;27.90;63.60;;;;;;5050650;28;20028;-62
2023/09/29 08:38:01;;;;;;;30.45;7.93;;;27.90;64.80;;;;;;5050672;28;20025;-65
2023/09/29 08:40:29;;;;;;;31.50;8.80;;;27.80;67.90;;;;;;5051278;28;20025;-64
2023/09/29 08:42:56;;;;;;;38.33;7.80;;;27.70;70.40;;;;;;5049326;28;20013;-64
2023/09/29 08:45:27;;;;;;;35.00;13.52;;;27.70;73.00;;;;;;5045643;28;20005;-65
2023/09/29 08:47:55;;;;;;;43.25;16.85;;;27.60;78.20;;;;;;5047630;28;20035;-66
2023/09/29 08:50:25;;;;;;;38.65;18.02;;;27.60;81.20;;;;;;5047767;28;20036;-66
2023/09/29 08:52:53;;;;;;;44.40;19.25;;;27.50;83.80;;;;;;5046968;28;20110;-61
2023/09/29 08:55:23;;;;;;;51.03;26.58;;;27.40;85.10;;;;;;5047969;28;20622;-60
2023/09/29 08:57:50;;;;;;;58.83;29.13;;;27.30;86.80;;;;;;5049815;28;20013;-63
2023/09/29 09:00:18;;;;;;;49.13;20.90;;;27.30;88.20;;;;;;5049108;28;20028;-64
2023/09/29 09:02:45;;;;;;;22.60;10.18;;;27.20;89.50;;;;;;5048833;28;20009;-63
2023/09/29 09:05:12;;;;;;;20.73;8.15;;;27.30;90.60;;;;;;5049712;28;20021;-66
2023/09/29 09:07:43;;;;;;;17.67;6.18;;;27.20;91.20;;;;;;5048801;28;20031;-60
2023/09/29 09:10:12;;;;;;;18.75;5.60;;;27.30;92.00;;;;;;5048986;28;20376;-65
2023/09/29 09:12:43;;;;;;;18.55;5.15;;;27.20;92.50;;;;;;5047957;28;20388;-66
2023/09/29 09:15:14;;;;;;;14.05;5.07;;;27.20;92.80;;;;;;5049886;28;20050;-65
2023/09/29 09:17:40;;;;;;;15.63;5.07;;;27.10;93.00;;;;;;5035271;28;20036;-65
2023/09/29 09:20:08;;;;;;;14.50;5.00;;;27.10;93.00;;;;;;5051748;28;20564;-63
2023/09/29 09:22:38;;;;;;;18.33;5.10;;;27.10;92.90;;;;;;5049908;28;20012;-63
2023/09/29 09:25:08;;;;;;;15.93;5.13;;;27.10;92.80;;;;;;5047516;28;20091;-65
2023/09/29 09:27:39;;;;;;;13.70;4.68;;;27.10;92.60;;;;;;5047753;28;20024;-65
2023/09/29 09:30:18;;;;;;;13.57;4.82;;;27.00;92.40;;;;;;5048709;28;20016;-63
2023/09/29 09:32:46;;;;;;;16.00;5.28;;;27.10;92.50;;;;;;5051329;28;20044;-64
2023/09/29 09:35:27;;;;;;;14.27;4.72;;;27.00;92.70;;;;;;5050760;28;20009;-63
2023/09/29 09:37:54;;;;;;;19.30;4.93;;;27.00;92.80;;;;;;5046676;28;20477;-61
2023/09/29 09:40:24;;;;;;;15.75;4.45;;;27.00;93.10;;;;;;5049545;28;20021;-62
2023/09/29 09:42:53;;;;;;;16.38;4.55;;;26.90;93.20;;;;;;5049164;28;20008;-64
2023/09/29 09:45:24;;;;;;;13.27;4.60;;;26.80;93.60;;;;;;5045749;28;20052;-63
2023/09/29 09:47:57;;;;;;;15.00;4.22;;;26.90;93.80;;;;;;5048755;28;20025;-63
2023/09/29 09:50:30;;;;;;;17.10;4.00;;;27.00;93.60;;;;;;5045892;28;20040;-63
2023/09/29 09:52:58;;;;;;;13.27;4.28;;;27.00;93.60;;;;;;5028667;28;20114;-63
2023/09/29 09:55:39;;;;;;;11.73;3.95;;;27.10;93.70;;;;;;5050079;28;20024;-62
2023/09/29 09:58:12;;;;;;;15.48;4.28;;;27.10;93.60;;;;;;5050700;28;20036;-64
2023/09/29 10:00:54;;;;;;;12.05;4.53;;;27.10;93.70;;;;;;5049065;28;20025;-62
2023/09/29 10:03:23;;;;;;;15.85;5.07;;;27.00;93.70;;;;;;5048416;28;20037;-62
2023/09/29 10:05:53;;;;;;;14.48;5.07;;;27.00;93.90;;;;;;5047117;28;20025;-63
2023/09/29 10:08:29;;;;;;;11.65;3.88;;;27.00;94.00;;;;;;5046720;28;20056;-64
2023/09/29 10:11:10;;;;;;;12.05;4.18;;;27.00;94.30;;;;;;5046930;28;20013;-62
2023/09/29 10:13:38;;;;;;;10.98;4.47;;;27.10;94.40;;;;;;5047268;28;20496;-61
2023/09/29 10:16:07;;;;;;;16.10;4.13;;;27.00;94.80;;;;;;5046926;28;20100;-62
2023/09/29 10:18:35;;;;;;;11.38;4.50;;;26.80;95.00;;;;;;5048743;28;20565;-62
2023/09/29 10:21:06;;;;;;;11.98;4.25;;;26.70;95.60;;;;;;5051689;28;20048;-61
2023/09/29 10:23:45;;;;;;;16.08;4.97;;;26.60;96.10;;;;;;5050228;28;20407;-63
2023/09/29 10:26:13;;;;;;;16.38;5.05;;;26.60;96.10;;;;;;5049598;28;20023;-63
2023/09/29 10:28:40;;;;;;;21.13;5.38;;;26.60;96.50;;;;;;5048814;28;20055;-63
2023/09/29 10:31:14;;;;;;;14.18;4.45;;;26.70;96.80;;;;;;5049079;28;20048;-62
2023/09/29 10:33:52;;;;;;;16.67;5.63;;;26.60;97.20;;;;;;5048271;28;20025;-63
2023/09/29 10:36:23;;;;;;;11.60;5.30;;;26.70;97.60;;;;;;5047144;28;20021;-64
2023/09/29 10:38:50;;;;;;;16.40;4.65;;;26.70;97.50;;;;;;5046221;28;20051;-64
2023/09/29 10:41:18;;;;;;;15.50;5.18;;;26.70;97.80;;;;;;5047422;28;20061;-61
2023/09/29 10:43:48;;;;;;;14.38;6.28;;;26.60;98.10;;;;;;5044032;28;20085;-62
2023/09/29 10:46:16;;;;;;;17.83;5.55;;;26.70;98.70;;;;;;5029817;28;20016;-62
2023/09/29 10:48:51;;;;;;;16.77;5.97;;;26.60;99.00;;;;;;5047321;28;20384;-63
2023/09/29 10:51:31;;;;;;;18.10;5.65;;;26.60;99.00;;;;;;5045604;28;20012;-57
2023/09/29 10:54:09;;;;;;;15.52;5.57;;;26.60;99.00;;;;;;5043965;28;20062;-61
2023/09/29 10:56:37;;;;;;;20.48;5.88;;;26.60;99.10;;;;;;5047503;28;20425;-63
2023/09/29 10:59:09;;;;;;;19.00;5.68;;;26.60;99.50;;;;;;5049785;28;20393;-64
2023/09/29 11:01:36;;;;;;;14.38;5.38;;;26.60;99.90;;;;;;5050133;28;20032;-62
2023/09/29 11:04:08;;;;;;;20.73;5.53;;;26.60;99.90;;;;;;5050948;28;20081;-62
2023/09/29 11:06:45;;;;;;;18.58;5.65;;;26.60;99.90;;;;;;5048708;28;20025;-63
2023/09/29 11:09:17;;;;;;;17.75;5.15;;;26.60;99.90;;;;;;5048816;28;20412;-62
2023/09/29 11:11:43;;;;;;;13.90;4.95;;;26.50;99.90;;;;;;5050666;28;20027;-63
2023/09/29 11:14:10;;;;;;;13.02;5.22;;;26.60;99.90;;;;;;5046572;28;20017;-62
2023/09/29 11:16:36;;;;;;;14.02;5.07;;;26.50;99.90;;;;;;5050327;28;20504;-61
2023/09/29 11:19:11;;;;;;;12.05;5.25;;;26.50;99.90;;;;;;5053963;28;20052;-64
2023/09/29 11:21:40;;;;;;;15.20;5.30;;;26.50;99.90;;;;;;5051482;28;20074;-63
2023/09/29 11:24:09;;;;;;;22.98;5.45;;;26.50;99.90;;;;;;5053580;28;20059;-63
2023/09/29 11:26:42;;;;;;;13.32;5.45;;;26.60;99.90;;;;;;5050427;28;20036;-63
2023/09/29 11:29:23;;;;;;;15.40;5.60;;;26.50;99.90;;;;;;5047390;28;20385;-63
2023/09/29 11:31:56;;;;;;;19.40;6.38;;;26.50;99.90;;;;;;5047444;28;20151;-62
2023/09/29 11:34:23;;;;;;;19.77;5.82;;;26.50;99.90;;;;;;5044584;28;20020;-65
2023/09/29 11:36:51;;;;;;;19.92;6.38;;;26.50;99.90;;;;;;5043461;28;20359;-64
2023/09/29 11:39:19;;;;;;;21.50;6.22;;;26.40;99.90;;;;;;5045065;28;20048;-62
2023/09/29 11:41:46;;;;;;;22.77;7.60;;;26.40;99.90;;;;;;5045072;28;20063;-63
2023/09/29 11:44:16;;;;;;;20.70;7.53;;;26.40;99.90;;;;;;5043269;28;20010;-61
2023/09/29 11:46:44;;;;;;;26.77;9.10;;;26.30;99.90;;;;;;5045147;28;20377;-65
2023/09/29 11:49:11;;;;;;;20.10;8.25;;;26.30;99.90;;;;;;5054295;28;20025;-62
2023/09/29 11:51:38;;;;;;;23.05;9.15;;;26.30;99.90;;;;;;5053615;28;20373;-64
2023/09/29 11:54:05;;;;;;;21.30;8.68;;;26.30;99.90;;;;;;5052814;28;20028;-63
2023/09/29 11:56:32;;;;;;;21.58;9.52;;;26.20;99.90;;;;;;5054127;28;20028;-61
2023/09/29 11:58:58;;;;;;;23.48;9.38;;;26.20;99.90;;;;;;5052269;28;20032;-62
2023/09/29 12:01:26;;;;;;;26.08;9.52;;;26.30;99.90;;;;;;5047728;28;20401;-63
2023/09/29 12:03:53;;;;;;;27.15;9.48;;;26.20;99.90;;;;;;5052602;28;20150;-64
2023/09/29 12:06:19;;;;;;;25.33;8.38;;;26.20;99.90;;;;;;5053712;28;20499;-62
2023/09/29 12:08:46;;;;;;;25.70;9.38;;;26.10;99.90;;;;;;5046004;28;20013;-64
2023/09/29 12:11:15;;;;;;;34.70;10.30;;;26.20;99.90;;;;;;5051729;28;20040;-63
2023/09/29 12:13:42;;;;;;;41.28;10.15;;;26.20;99.90;;;;;;5047343;28;20502;-63
2023/09/29 12:16:09;;;;;;;34.38;9.57;;;26.20;99.90;;;;;;5042643;28;20144;-65
2023/09/29 12:18:36;;;;;;;28.48;8.70;;;26.10;99.90;;;;;;5041795;28;20017;-64
2023/09/29 12:21:10;;;;;;;23.58;9.05;;;26.00;99.90;;;;;;5044918;28;20036;-64
2023/09/29 12:23:37;;;;;;;32.78;9.05;;;26.00;99.90;;;;;;5043547;28;20040;-63
2023/09/29 12:26:06;;;;;;;22.17;8.10;;;26.00;99.90;;;;;;5045258;28;20055;-63
2023/09/29 12:28:33;;;;;;;20.98;8.77;;;26.00;99.90;;;;;;5044045;28;20032;-65
2023/09/29 12:30:59;;;;;;;31.60;8.52;;;26.00;99.90;;;;;;5027595;28;20574;-62
2023/09/29 12:33:26;;;;;;;18.05;8.10;;;26.00;99.90;;;;;;5044162;28;20104;-63
2023/09/29 12:35:52;;;;;;;19.83;8.07;;;26.00;99.90;;;;;;5044204;28;20063;-63
2023/09/29 12:38:18;;;;;;;22.75;7.88;;;26.00;99.90;;;;;;5042679;28;20027;-63